createdAt,value
2019-05-17T00:01:18.650Z,46.48
2019-05-17T00:03:51.826Z,48.08
2019-05-17T00:06:27.570Z,47.15
2019-05-17T00:09:01.268Z,52.83
2019-05-17T00:11:36.775Z,46.50
2019-05-17T00:14:10.641Z,52.00
2019-05-17T00:16:46.797Z,47.33
2019-05-17T00:19:19.407Z,48.20
2019-05-17T00:21:52.393Z,47.30
2019-05-17T00:24:26.639Z,50.95
2019-05-17T00:27:00.688Z,51.85
2019-05-17T00:29:33.974Z,69.05
2019-05-17T00:32:07.061Z,56.15
2019-05-17T00:34:40.815Z,62.08
2019-05-17T00:37:17.374Z,54.00
2019-05-17T00:39:51.200Z,59.33
2019-05-17T00:42:26.414Z,58.02
2019-05-17T00:45:00.031Z,58.30
2019-05-17T00:47:33.385Z,62.50
2019-05-17T00:50:07.689Z,57.13
2019-05-17T00:52:41.433Z,56.73
2019-05-17T00:55:14.783Z,57.33
2019-05-17T00:57:48.127Z,59.27
2019-05-17T01:00:21.533Z,57.27
2019-05-17T01:02:54.631Z,52.00
2019-05-17T01:05:27.717Z,54.25
2019-05-17T01:08:01.104Z,63.45
2019-05-17T01:10:36.682Z,59.60
2019-05-17T01:13:09.404Z,56.00
2019-05-17T01:15:42.193Z,61.02
2019-05-17T01:18:16.236Z,61.90
2019-05-17T01:20:48.998Z,57.00
2019-05-17T01:23:21.982Z,59.98
2019-05-17T01:25:56.698Z,57.62
2019-05-17T01:28:30.403Z,61.98
2019-05-17T01:31:06.483Z,60.75
2019-05-17T01:33:39.764Z,57.08
2019-05-17T01:36:12.951Z,56.48
2019-05-17T01:38:46.917Z,58.33
2019-05-17T01:41:19.962Z,54.15
2019-05-17T01:43:53.163Z,62.05
2019-05-17T01:46:26.512Z,61.18
2019-05-17T01:49:00.381Z,59.18
2019-05-17T01:51:34.088Z,61.37
2019-05-17T01:54:07.396Z,51.95
2019-05-17T01:56:40.721Z,61.23
2019-05-17T01:59:13.726Z,49.13
2019-05-17T02:01:48.690Z,56.68
2019-05-17T02:04:21.659Z,61.33
2019-05-17T02:06:53.857Z,60.83
2019-05-17T02:09:37.248Z,76.80
2019-05-17T02:12:02.130Z,69.12
2019-05-17T02:14:37.422Z,56.30
2019-05-17T02:17:10.670Z,58.45
2019-05-17T02:19:46.450Z,70.30
2019-05-17T02:22:18.386Z,61.08
2019-05-17T02:24:52.821Z,69.35
2019-05-17T02:27:32.155Z,60.35
2019-05-17T02:30:02.614Z,57.73
2019-05-17T02:32:37.648Z,59.30
2019-05-17T02:35:14.402Z,52.50
2019-05-17T02:37:45.616Z,56.35
2019-05-17T02:40:18.759Z,56.48
2019-05-17T16:33:51.658Z,10.97
2019-05-17T16:36:25.203Z,15.17
2019-05-17T16:38:57.966Z,12.50
2019-05-17T16:41:31.620Z,10.23
2019-05-17T16:44:05.112Z,11.20
2019-05-17T16:46:38.941Z,11.87
2019-05-17T16:49:12.498Z,13.00
2019-05-17T16:51:45.474Z,12.70
2019-05-17T16:54:18.811Z,12.20
2019-05-17T16:56:52.228Z,10.70
2019-05-17T16:59:25.793Z,15.83
2019-05-17T17:01:58.993Z,15.37
2019-05-17T17:04:32.496Z,16.07
2019-05-17T17:07:07.158Z,16.45
2019-05-17T17:09:40.213Z,10.32
2019-05-17T17:12:13.727Z,14.23
2019-05-17T17:14:47.182Z,13.70
2019-05-17T17:17:20.155Z,13.88
2019-05-17T17:19:53.815Z,18.45
2019-05-17T17:22:27.163Z,12.43
2019-05-17T17:25:00.647Z,14.15
2019-05-17T17:27:34.629Z,20.17
2019-05-17T17:30:07.995Z,13.48
2019-05-17T17:32:41.549Z,16.02
2019-05-17T17:35:15.665Z,12.73
2019-05-17T17:37:47.964Z,13.40
2019-05-17T17:40:21.068Z,12.00
2019-05-17T17:42:53.774Z,17.60
2019-05-17T17:45:26.709Z,13.00
2019-05-17T17:48:00.154Z,19.57
2019-05-17T17:50:33.267Z,12.90
2019-05-17T17:53:07.016Z,15.60
2019-05-17T17:55:40.466Z,11.65
2019-05-17T17:58:13.537Z,18.05
2019-05-17T18:00:47.443Z,15.45
2019-05-17T18:03:21.761Z,15.43
2019-05-17T18:05:55.158Z,13.83
2019-05-17T18:08:28.299Z,13.95
2019-05-17T18:11:01.343Z,15.60
2019-05-17T18:13:34.528Z,13.95
2019-05-17T18:16:08.105Z,13.72
2019-05-17T18:18:41.618Z,12.70
2019-05-17T18:21:15.000Z,13.15
2019-05-17T18:23:48.653Z,13.43
2019-05-17T18:26:22.118Z,14.20
2019-05-17T18:28:55.536Z,15.28
2019-05-17T18:31:28.590Z,15.70
2019-05-17T18:34:01.402Z,14.05
2019-05-17T18:36:34.780Z,16.95
2019-05-17T18:39:08.287Z,15.95
2019-05-17T18:41:43.218Z,14.23
2019-05-17T18:44:27.189Z,15.38
2019-05-17T18:46:51.368Z,15.50
2019-05-17T18:49:24.734Z,14.73
2019-05-17T18:51:58.247Z,15.30
2019-05-17T18:54:31.444Z,14.05
2019-05-17T18:57:05.400Z,15.18
2019-05-17T18:59:38.143Z,16.00
2019-05-17T19:02:11.223Z,16.23
2019-05-17T19:04:44.403Z,15.35
2019-05-17T19:07:17.225Z,15.15
2019-05-17T19:09:51.019Z,15.58
2019-05-17T19:12:25.055Z,14.43
2019-05-17T19:15:00.645Z,16.55
2019-05-17T19:17:33.845Z,19.25
2019-05-17T19:20:06.847Z,15.10
2019-05-17T19:22:40.519Z,14.20
2019-05-17T19:25:14.048Z,16.97
2019-05-17T19:27:46.810Z,15.38
2019-05-17T19:30:19.773Z,16.07
2019-05-17T19:32:53.310Z,19.80
2019-05-17T19:35:26.325Z,18.75
2019-05-17T19:38:00.657Z,19.32
2019-05-17T19:40:33.753Z,16.15
2019-05-17T19:43:06.102Z,17.87
2019-05-17T19:45:39.584Z,17.57
2019-05-17T19:48:12.896Z,22.55
2019-05-17T19:50:46.453Z,22.30
2019-05-17T19:53:24.230Z,22.00
2019-05-17T19:55:56.943Z,18.45
2019-05-17T19:58:30.060Z,17.25
2019-05-17T20:01:04.012Z,17.87
2019-05-17T20:03:37.657Z,16.52
2019-05-17T20:06:10.840Z,16.55
2019-05-17T20:08:44.038Z,18.77
2019-05-17T20:11:17.408Z,17.50
2019-05-17T20:13:50.547Z,18.40
2019-05-17T20:16:26.119Z,17.95
2019-05-17T20:18:59.887Z,18.48
2019-05-17T20:21:34.395Z,20.60
2019-05-17T20:24:07.811Z,21.23
2019-05-17T20:26:41.336Z,21.15
2019-05-17T20:29:14.900Z,17.52
2019-05-17T20:31:48.004Z,21.87
2019-05-17T20:34:21.092Z,17.73
2019-05-17T20:36:54.652Z,16.20
2019-05-17T20:39:27.757Z,17.80
2019-05-17T20:42:01.428Z,16.35
2019-05-17T20:44:35.201Z,20.48
2019-05-17T20:47:09.683Z,18.82
2019-05-17T20:49:43.392Z,18.98
2019-05-17T20:52:16.098Z,17.65
2019-05-17T20:54:49.681Z,16.27
2019-05-17T20:57:23.653Z,16.93
2019-05-17T20:59:57.466Z,21.10
2019-05-17T21:02:30.757Z,18.42
2019-05-17T21:05:04.295Z,15.38
2019-05-17T21:07:37.724Z,20.55
2019-05-17T21:10:11.291Z,18.77
2019-05-17T21:12:44.788Z,19.55
2019-05-17T21:15:18.481Z,17.82
2019-05-17T21:17:51.191Z,18.67
2019-05-17T21:20:25.070Z,18.60
2019-05-17T21:22:58.546Z,20.10
2019-05-17T21:25:32.228Z,19.48
2019-05-17T21:28:06.124Z,19.07
2019-05-17T21:30:39.931Z,16.45
2019-05-17T21:33:13.774Z,19.23
2019-05-17T21:35:47.893Z,17.70
2019-05-17T21:38:21.173Z,17.98
2019-05-17T21:40:53.811Z,15.50
2019-05-17T21:43:27.285Z,18.90
2019-05-17T21:46:04.286Z,16.60
2019-05-17T21:48:37.540Z,16.27
2019-05-17T21:51:10.544Z,17.75
2019-05-17T21:53:43.594Z,18.98
2019-05-17T21:56:16.205Z,16.25
2019-05-17T21:58:49.560Z,17.57
2019-05-17T22:01:25.714Z,20.23
2019-05-17T22:03:59.624Z,19.12
2019-05-17T22:06:32.667Z,19.90
2019-05-17T22:09:07.255Z,19.30
2019-05-17T22:11:44.608Z,19.67
2019-05-17T22:14:18.716Z,17.30
2019-05-17T22:16:51.515Z,17.90
2019-05-17T22:19:25.163Z,22.25
2019-05-17T22:21:58.613Z,18.32
2019-05-17T22:24:31.979Z,17.52
2019-05-17T22:27:05.859Z,19.45
2019-05-17T22:29:38.898Z,18.00
2019-05-17T22:32:12.409Z,17.67
2019-05-17T22:34:46.798Z,18.62
2019-05-17T22:37:20.323Z,18.27
2019-05-17T22:39:53.944Z,16.77
2019-05-17T22:42:27.566Z,18.73
2019-05-17T22:45:01.322Z,17.12
2019-05-17T22:47:34.384Z,18.30
2019-05-17T22:50:07.783Z,19.35
2019-05-17T22:52:40.979Z,19.52
2019-05-17T22:55:14.295Z,20.10
2019-05-17T22:57:47.939Z,22.32
2019-05-17T23:00:20.368Z,17.92
2019-05-17T23:02:53.253Z,16.52
2019-05-17T23:05:26.807Z,21.50
2019-05-17T23:08:00.708Z,19.40
2019-05-17T23:10:35.132Z,19.40
2019-05-17T23:13:10.132Z,18.90
2019-05-17T23:16:02.565Z,20.43
2019-05-17T23:18:36.113Z,21.27
2019-05-17T23:21:10.231Z,21.50
2019-05-17T23:23:44.078Z,18.17
2019-05-17T23:26:17.504Z,18.00
2019-05-17T23:28:51.275Z,21.60
2019-05-17T23:31:24.303Z,17.98
2019-05-17T23:33:57.146Z,16.87
2019-05-17T23:36:30.262Z,20.48
2019-05-17T23:39:04.789Z,16.60
2019-05-17T23:41:38.030Z,16.62
2019-05-17T23:44:11.169Z,17.98
2019-05-17T23:46:44.972Z,18.40
2019-05-17T23:49:18.365Z,17.85
2019-05-17T23:51:51.799Z,17.77
2019-05-17T23:54:25.346Z,20.85
2019-05-17T23:56:58.391Z,19.90
2019-05-17T23:59:31.503Z,20.40
